createdAt,value
2022-10-13T00:02:04.541Z,6.30
2022-10-13T00:05:45.075Z,6.26
2022-10-13T00:09:21.385Z,6.23
2022-10-13T00:13:00.991Z,6.19
2022-10-13T00:16:38.324Z,6.13
2022-10-13T00:20:15.469Z,6.08
2022-10-13T00:23:54.159Z,6.01
2022-10-13T00:27:30.580Z,5.93
2022-10-13T00:31:15.515Z,5.86
2022-10-13T00:34:51.730Z,5.80
2022-10-13T00:38:29.718Z,5.75
2022-10-13T00:42:10.650Z,5.74
2022-10-13T00:45:50.227Z,5.74
2022-10-13T00:49:26.393Z,5.72
2022-10-13T00:53:06.135Z,5.67
2022-10-13T00:56:53.957Z,5.65
2022-10-13T01:00:31.109Z,5.64
2022-10-13T01:04:07.756Z,5.61
2022-10-13T01:07:49.406Z,5.60
2022-10-13T01:11:32.549Z,5.61
2022-10-13T01:15:49.000Z,5.53
2022-10-13T01:19:46.576Z,5.51
2022-10-13T01:23:34.869Z,5.48
2022-10-13T01:27:50.574Z,5.47
2022-10-13T01:32:00.627Z,5.44
2022-10-13T01:36:20.127Z,5.38
2022-10-13T01:40:24.005Z,5.36
2022-10-13T01:44:38.082Z,5.31
2022-10-13T01:48:20.500Z,5.26
2022-10-13T01:52:04.880Z,5.22
2022-10-13T01:56:02.390Z,5.18
2022-10-13T01:59:41.824Z,5.10
2022-10-13T02:03:34.738Z,5.08
2022-10-13T02:07:42.491Z,5.00
2022-10-13T02:11:22.313Z,4.95
2022-10-13T02:15:05.345Z,4.91
2022-10-13T02:18:45.168Z,4.88
2022-10-13T02:22:30.124Z,4.85
2022-10-13T02:26:06.821Z,4.80
2022-10-13T02:29:51.259Z,4.73
2022-10-13T02:33:29.164Z,4.69
2022-10-13T02:37:08.286Z,4.68
2022-10-13T02:40:45.586Z,4.68
2022-10-13T02:44:25.150Z,4.63
2022-10-13T02:48:01.550Z,4.58
2022-10-13T02:51:43.448Z,4.54
2022-10-13T02:55:30.627Z,4.51
2022-10-13T02:59:08.349Z,4.48
2022-10-13T03:02:54.479Z,4.45
2022-10-13T03:06:32.116Z,4.42
2022-10-13T03:10:31.261Z,4.43
2022-10-13T03:14:19.591Z,4.42
2022-10-13T03:18:16.646Z,4.38
2022-10-13T03:21:54.171Z,4.34
2022-10-13T03:25:36.415Z,4.31
2022-10-13T03:29:18.472Z,4.30
2022-10-13T03:32:54.625Z,4.29
2022-10-13T03:36:51.085Z,4.26
2022-10-13T03:40:29.497Z,4.21
2022-10-13T03:44:13.439Z,4.19
2022-10-13T03:47:50.940Z,4.15
2022-10-13T03:51:46.070Z,4.14
2022-10-13T03:55:26.210Z,4.15
2022-10-13T03:59:05.298Z,4.12
2022-10-13T04:02:43.031Z,4.11
2022-10-13T04:06:19.878Z,4.10
2022-10-13T04:10:11.606Z,4.10
2022-10-13T04:13:50.136Z,4.08
2022-10-13T04:17:35.805Z,4.06
2022-10-13T04:21:16.546Z,4.05
2022-10-13T04:24:59.484Z,4.03
2022-10-13T04:28:47.735Z,4.01
2022-10-13T04:32:24.270Z,3.99
2022-10-13T04:36:08.135Z,3.96
2022-10-13T04:39:44.332Z,3.90
2022-10-13T04:43:22.235Z,3.83
2022-10-13T04:47:01.716Z,3.80
2022-10-13T04:50:37.829Z,3.76
2022-10-13T04:54:15.523Z,3.75
2022-10-13T04:57:52.928Z,3.75
2022-10-13T05:01:31.025Z,3.70
2022-10-13T05:05:09.616Z,3.64
2022-10-13T05:08:48.515Z,3.61
2022-10-13T05:12:25.690Z,3.62
2022-10-13T05:16:08.620Z,3.65
2022-10-13T05:19:45.578Z,3.66
2022-10-13T05:23:22.298Z,3.67
2022-10-13T05:26:59.952Z,3.68
2022-10-13T05:30:37.646Z,3.74
2022-10-13T05:34:15.488Z,3.82
2022-10-13T05:37:53.158Z,3.89
2022-10-13T05:41:31.570Z,3.97
2022-10-13T05:45:10.915Z,4.11
2022-10-13T05:48:46.895Z,4.16
2022-10-13T05:52:25.650Z,4.26
2022-10-13T05:56:08.984Z,4.39
2022-10-13T05:59:51.178Z,4.48
2022-10-13T06:03:48.083Z,4.57
2022-10-13T06:07:05.354Z,4.65
2022-10-13T06:10:43.842Z,4.74
2022-10-13T06:14:21.170Z,4.84
2022-10-13T06:17:58.037Z,4.95
2022-10-13T06:21:35.780Z,5.08
2022-10-13T06:25:13.170Z,5.21
2022-10-13T06:28:54.462Z,5.33
2022-10-13T06:32:34.131Z,5.50
2022-10-13T06:36:11.984Z,5.62
2022-10-13T06:39:49.205Z,5.70
2022-10-13T06:43:34.362Z,5.75
2022-10-13T06:47:16.394Z,5.91
2022-10-13T06:50:54.235Z,6.07
2022-10-13T06:54:34.714Z,6.23
2022-10-13T06:58:11.934Z,6.47
2022-10-13T07:01:52.013Z,6.82
2022-10-13T07:05:28.418Z,7.16
2022-10-13T07:09:07.836Z,7.43
2022-10-13T07:12:43.866Z,7.68
2022-10-13T07:16:21.940Z,8.11
2022-10-13T07:20:01.315Z,8.60
2022-10-13T07:23:40.521Z,8.94
2022-10-13T07:27:17.878Z,9.14
2022-10-13T07:30:55.156Z,9.39
2022-10-13T07:34:33.288Z,9.74
2022-10-13T07:38:11.813Z,10.07
2022-10-13T07:41:51.045Z,10.37
2022-10-13T07:45:27.870Z,10.68
2022-10-13T07:49:05.485Z,11.04
2022-10-13T07:52:43.340Z,11.49
2022-10-13T07:56:20.955Z,11.90
2022-10-13T07:59:59.047Z,12.34
2022-10-13T08:07:17.057Z,12.75
2022-10-13T08:14:34.775Z,13.11
2022-10-13T08:18:14.528Z,13.25
2022-10-13T08:21:59.156Z,13.60
2022-10-13T08:25:41.012Z,13.92
2022-10-13T08:29:25.240Z,14.35
2022-10-13T08:33:01.433Z,14.59
2022-10-13T08:36:40.057Z,14.72
2022-10-13T08:40:21.090Z,14.90
2022-10-13T08:48:23.430Z,15.93
2022-10-13T08:52:05.705Z,15.97
2022-10-13T08:55:47.504Z,16.18
2022-10-13T08:59:24.834Z,16.39
2022-10-13T09:03:20.166Z,16.37
2022-10-13T09:07:05.448Z,16.34
2022-10-13T09:10:51.227Z,16.29
2022-10-13T09:14:33.582Z,16.35
2022-10-13T09:18:14.176Z,16.70
2022-10-13T09:21:54.369Z,16.97
2022-10-13T09:25:42.750Z,16.66
2022-10-13T09:29:25.059Z,16.98
2022-10-13T09:33:13.706Z,17.32
2022-10-13T09:36:57.267Z,17.50
2022-10-13T09:40:34.470Z,17.68
2022-10-13T09:44:32.473Z,18.08
2022-10-13T09:48:19.452Z,18.61
2022-10-13T09:52:05.010Z,19.12
2022-10-13T09:55:41.075Z,19.18
2022-10-13T09:59:35.981Z,19.25
2022-10-13T10:03:32.912Z,18.71
2022-10-13T10:07:22.005Z,18.77
2022-10-13T10:11:02.777Z,19.20
2022-10-13T10:14:39.380Z,19.43
2022-10-13T10:18:48.773Z,19.11
2022-10-13T10:22:33.877Z,19.62
2022-10-13T10:26:34.474Z,19.78
2022-10-13T10:30:17.275Z,20.02
2022-10-13T10:34:15.387Z,20.35
2022-10-13T10:38:04.436Z,20.30
2022-10-13T10:42:41.885Z,20.19
2022-10-13T10:46:22.805Z,19.60
2022-10-13T10:50:06.363Z,19.57
2022-10-13T10:54:21.724Z,19.89
2022-10-13T10:58:09.956Z,19.88
2022-10-13T11:02:07.568Z,19.79
2022-10-13T11:06:26.475Z,19.68
2022-10-13T11:10:17.888Z,19.95
2022-10-13T11:14:05.735Z,20.07
2022-10-13T11:17:42.516Z,20.40
2022-10-13T11:21:21.991Z,20.51
2022-10-13T11:25:01.244Z,20.69
2022-10-13T11:28:40.367Z,20.33
2022-10-13T11:32:26.950Z,19.99
2022-10-13T11:36:33.053Z,20.02
2022-10-13T11:40:29.246Z,20.19
2022-10-13T11:44:46.274Z,20.00
2022-10-13T11:48:28.719Z,19.77
2022-10-13T11:52:21.427Z,19.91
2022-10-13T11:56:18.536Z,19.89
2022-10-13T11:59:57.459Z,20.42
2022-10-13T12:03:36.676Z,21.13
2022-10-13T12:07:16.617Z,20.93
2022-10-13T12:10:57.579Z,20.88
2022-10-13T12:14:43.409Z,21.08
2022-10-13T12:18:25.389Z,20.86
2022-10-13T12:22:02.389Z,20.72
2022-10-13T12:25:39.264Z,20.49
2022-10-13T12:29:19.891Z,20.27
2022-10-13T12:32:59.274Z,20.24
2022-10-13T12:36:40.870Z,20.59
2022-10-13T12:40:19.403Z,20.63
2022-10-13T12:43:56.301Z,20.78
2022-10-13T12:47:48.547Z,20.73
2022-10-13T12:51:28.579Z,20.87
2022-10-13T12:55:23.535Z,21.14
2022-10-13T12:58:43.796Z,21.80
2022-10-13T13:02:33.170Z,21.68
2022-10-13T13:06:15.468Z,21.31
2022-10-13T13:10:04.494Z,21.53
2022-10-13T13:13:40.570Z,22.13
2022-10-13T13:17:38.448Z,22.35
2022-10-13T13:21:20.074Z,23.08
2022-10-13T13:24:57.423Z,22.70
2022-10-13T13:28:34.086Z,22.60
2022-10-13T13:32:19.991Z,22.92
2022-10-13T13:35:56.689Z,22.98
2022-10-13T13:39:34.582Z,22.64
2022-10-13T13:43:12.982Z,22.96
2022-10-13T13:46:49.374Z,22.55
2022-10-13T13:50:33.404Z,22.93
2022-10-13T13:54:09.707Z,23.43
2022-10-13T13:57:47.222Z,23.45
2022-10-13T14:01:25.949Z,22.74
2022-10-13T14:05:02.793Z,22.18
2022-10-13T14:08:42.936Z,21.77
2022-10-13T14:12:19.791Z,21.94
2022-10-13T14:16:00.030Z,21.40
2022-10-13T14:19:36.702Z,20.06
2022-10-13T14:23:14.441Z,18.87
2022-10-13T14:26:51.982Z,17.95
2022-10-13T14:30:29.285Z,17.30
2022-10-13T14:34:08.303Z,16.73
2022-10-13T14:37:45.266Z,16.55
2022-10-13T14:41:23.414Z,16.41
2022-10-13T14:45:00.410Z,16.23
2022-10-13T14:48:38.570Z,15.98
2022-10-13T14:52:15.187Z,15.72
2022-10-13T14:55:54.524Z,15.57
2022-10-13T14:59:34.275Z,15.51
2022-10-13T15:03:11.740Z,15.33
2022-10-13T15:06:49.376Z,15.23
2022-10-13T15:10:27.184Z,15.12
2022-10-13T15:14:04.904Z,15.04
2022-10-13T15:17:42.494Z,14.93
2022-10-13T15:21:20.262Z,14.79
2022-10-13T15:24:57.692Z,14.68
2022-10-13T15:28:38.417Z,14.56
2022-10-13T15:32:18.620Z,14.46
2022-10-13T15:35:55.605Z,14.26
2022-10-13T15:39:34.181Z,14.08
2022-10-13T15:43:10.777Z,13.89
2022-10-13T15:47:06.707Z,13.62
2022-10-13T15:50:45.403Z,13.41
2022-10-13T15:54:22.696Z,13.28
2022-10-13T15:57:59.646Z,13.07
2022-10-13T16:01:38.397Z,12.80
2022-10-13T16:05:16.041Z,12.55
2022-10-13T16:08:53.780Z,12.33
2022-10-13T16:12:31.294Z,12.16
2022-10-13T16:16:09.494Z,12.01
2022-10-13T16:19:45.658Z,11.89
2022-10-13T16:23:24.765Z,11.74
2022-10-13T16:27:02.105Z,11.62
2022-10-13T16:30:38.895Z,11.45
2022-10-13T16:34:16.334Z,11.27
2022-10-13T16:37:54.070Z,11.12
2022-10-13T16:41:31.782Z,10.94
2022-10-13T16:45:10.930Z,10.70
2022-10-13T16:48:48.699Z,10.57
2022-10-13T16:52:24.988Z,10.47
2022-10-13T16:56:05.114Z,10.39
2022-10-13T16:59:41.419Z,10.31
2022-10-13T17:03:19.121Z,10.16
2022-10-13T17:06:57.028Z,9.99
2022-10-13T17:10:35.034Z,9.88
2022-10-13T17:14:12.346Z,9.82
2022-10-13T17:17:50.795Z,9.77
2022-10-13T17:21:27.647Z,9.76
2022-10-13T17:25:06.680Z,9.79
2022-10-13T17:28:43.410Z,9.82
2022-10-13T17:32:37.825Z,9.83
2022-10-13T17:36:26.097Z,9.85
2022-10-13T17:40:03.124Z,9.82
2022-10-13T17:43:46.602Z,9.81
2022-10-13T17:47:23.028Z,9.76
2022-10-13T17:51:09.296Z,9.67
2022-10-13T17:54:45.683Z,9.61
2022-10-13T17:58:22.846Z,9.55
2022-10-13T18:02:00.699Z,9.54
2022-10-13T18:05:42.367Z,9.55
2022-10-13T18:09:24.428Z,9.57
2022-10-13T18:13:00.440Z,9.60
2022-10-13T18:16:39.138Z,9.58
2022-10-13T18:20:15.939Z,9.53
2022-10-13T18:23:59.579Z,9.49
2022-10-13T18:27:36.781Z,9.45
2022-10-13T18:31:27.698Z,9.43
2022-10-13T18:35:04.225Z,9.42
2022-10-13T18:38:41.779Z,9.40
2022-10-13T18:42:19.479Z,9.26
2022-10-13T18:46:14.678Z,9.18
2022-10-13T18:49:50.855Z,9.14
2022-10-13T18:53:29.174Z,9.09
2022-10-13T18:57:06.058Z,9.00
2022-10-13T19:00:43.830Z,8.85
2022-10-13T19:04:23.400Z,8.71
2022-10-13T19:08:00.744Z,8.67
2022-10-13T19:11:38.062Z,8.59
2022-10-13T19:15:15.403Z,8.57
2022-10-13T19:18:53.440Z,8.58
2022-10-13T19:22:31.312Z,8.58
2022-10-13T19:26:14.651Z,8.54
2022-10-13T19:29:55.060Z,8.53
2022-10-13T19:33:31.832Z,8.53
2022-10-13T19:37:09.646Z,8.50
2022-10-13T19:40:50.015Z,8.50
2022-10-13T19:44:27.997Z,8.49
2022-10-13T19:48:05.374Z,8.46
2022-10-13T19:51:43.438Z,8.43
2022-10-13T19:55:21.197Z,8.46
2022-10-13T19:59:00.105Z,8.53
2022-10-13T20:02:36.287Z,8.50
2022-10-13T20:06:15.532Z,8.45
2022-10-13T20:09:51.680Z,8.39
2022-10-13T20:13:30.316Z,8.36
2022-10-13T20:17:07.214Z,8.33
2022-10-13T20:20:45.812Z,8.31
2022-10-13T20:24:24.653Z,8.27
2022-10-13T20:28:00.602Z,8.28
2022-10-13T20:31:38.238Z,8.24
2022-10-13T20:35:16.125Z,8.10
2022-10-13T20:38:54.968Z,7.95
2022-10-13T20:42:32.504Z,7.77
2022-10-13T20:46:10.675Z,7.59
2022-10-13T20:49:47.973Z,7.46
2022-10-13T20:53:25.358Z,7.36
2022-10-13T20:57:03.270Z,7.27
2022-10-13T21:00:43.985Z,7.15
2022-10-13T21:04:20.126Z,7.05
2022-10-13T21:07:57.924Z,6.97
2022-10-13T21:11:36.438Z,6.93
2022-10-13T21:15:13.009Z,6.88
2022-10-13T21:18:52.054Z,6.82
2022-10-13T21:22:30.669Z,6.74
2022-10-13T21:26:09.084Z,6.67
2022-10-13T21:29:46.792Z,6.59
2022-10-13T21:33:23.775Z,6.54
2022-10-13T21:37:01.593Z,6.45
2022-10-13T21:40:38.775Z,6.37
2022-10-13T21:44:16.592Z,6.33
2022-10-13T21:47:55.000Z,6.33
2022-10-13T21:51:37.808Z,6.31
2022-10-13T21:55:17.065Z,6.32
2022-10-13T21:58:56.610Z,6.32
2022-10-13T22:02:33.391Z,6.33
2022-10-13T22:06:18.525Z,6.30
2022-10-13T22:09:56.375Z,6.24
2022-10-13T22:13:33.664Z,6.19
2022-10-13T22:17:10.655Z,6.15
2022-10-13T22:20:48.460Z,6.12
2022-10-13T22:24:26.365Z,6.08
2022-10-13T22:28:03.965Z,6.03
2022-10-13T22:31:43.514Z,5.94
2022-10-13T22:35:19.989Z,5.86
2022-10-13T22:39:02.966Z,5.86
2022-10-13T22:42:39.285Z,5.88
2022-10-13T22:46:19.813Z,5.92
2022-10-13T22:49:56.125Z,5.89
2022-10-13T22:53:35.055Z,5.87
2022-10-13T22:57:12.898Z,5.83
2022-10-13T23:00:50.373Z,5.79
2022-10-13T23:04:28.470Z,5.80
2022-10-13T23:08:06.278Z,5.79
2022-10-13T23:11:44.606Z,5.78
2022-10-13T23:15:21.274Z,5.76
2022-10-13T23:18:58.886Z,5.74
2022-10-13T23:22:37.194Z,5.72
2022-10-13T23:26:18.082Z,5.72
2022-10-13T23:29:57.615Z,5.69
2022-10-13T23:33:35.319Z,5.65
2022-10-13T23:37:12.834Z,5.62
2022-10-13T23:40:50.945Z,5.64
2022-10-13T23:44:30.376Z,5.63
2022-10-13T23:48:07.062Z,5.64
2022-10-13T23:51:49.582Z,5.66
2022-10-13T23:55:39.259Z,5.65
2022-10-13T23:59:15.434Z,5.69
